createdAt,value
2023-05-13T00:00:03.328Z,9.45
2023-05-13T00:01:03.907Z,9.42
2023-05-13T00:02:03.502Z,9.39
2023-05-13T00:03:02.198Z,9.35
2023-05-13T00:04:01.778Z,9.34
2023-05-13T00:05:04.152Z,9.33
2023-05-13T00:06:02.478Z,9.33
2023-05-13T00:07:01.971Z,9.32
2023-05-13T00:08:01.579Z,9.3
2023-05-13T00:09:02.122Z,9.27
2023-05-13T00:10:02.444Z,9.26
2023-05-13T00:11:01.948Z,9.24
2023-05-13T00:12:02.736Z,9.21
2023-05-13T00:13:02.209Z,9.21
2023-05-13T00:14:01.437Z,9.21
2023-05-13T00:15:02.909Z,9.18
2023-05-13T00:16:04.622Z,9.17
2023-05-13T00:17:02.142Z,9.18
2023-05-13T00:18:02.760Z,9.18
2023-05-13T00:20:02.914Z,9.18
2023-05-13T00:21:02.237Z,9.16
2023-05-13T00:22:01.647Z,9.15
2023-05-13T00:24:02.005Z,9.11
2023-05-13T00:25:02.615Z,9.14
2023-05-13T00:26:02.294Z,9.15
2023-05-13T00:27:01.884Z,9.15
2023-05-13T00:28:01.574Z,9.14
2023-05-13T00:29:02.222Z,9.14
2023-05-13T00:30:02.815Z,9.11
2023-05-13T00:31:02.634Z,9.11
2023-05-13T00:32:01.964Z,9.1
2023-05-13T00:33:01.593Z,9.08
2023-05-13T00:34:02.291Z,9.09
2023-05-13T00:35:02.631Z,9.08
2023-05-13T00:36:02.382Z,9.07
2023-05-13T00:37:34.437Z,9.06
2023-05-13T00:38:01.801Z,9.05
2023-05-13T00:39:02.160Z,9.01
2023-05-13T00:40:02.864Z,9.02
2023-05-13T00:41:02.464Z,9.02
2023-05-13T00:42:01.697Z,9
2023-05-13T00:43:02.196Z,8.95
2023-05-13T00:44:03.783Z,8.95
2023-05-13T00:45:02.384Z,8.95
2023-05-13T00:46:04.254Z,9
2023-05-13T00:47:01.656Z,9.01
2023-05-13T00:48:02.268Z,9
2023-05-13T00:49:01.700Z,8.97
2023-05-13T00:50:02.308Z,8.98
2023-05-13T00:51:02.336Z,8.96
2023-05-13T00:52:01.965Z,8.97
2023-05-13T00:53:01.470Z,9.01
2023-05-13T00:54:02.046Z,9
2023-05-13T00:55:02.930Z,9
2023-05-13T00:56:02.118Z,8.97
2023-05-13T00:57:01.737Z,8.95
2023-05-13T00:58:02.195Z,8.95
2023-05-13T00:59:01.806Z,8.95
2023-05-13T01:00:03.866Z,8.94
2023-05-13T01:01:01.815Z,8.94
2023-05-13T01:02:03.316Z,8.94
2023-05-13T01:03:03.160Z,8.94
2023-05-13T01:04:02.449Z,8.94
2023-05-13T01:05:03.079Z,8.94
2023-05-13T01:06:04.582Z,8.94
2023-05-13T01:07:03.738Z,8.94
2023-05-13T01:08:01.494Z,8.94
2023-05-13T01:09:03.930Z,8.9
2023-05-13T01:10:02.646Z,8.88
2023-05-13T01:11:03.200Z,8.89
2023-05-13T01:12:03.640Z,8.94
2023-05-13T01:13:01.738Z,8.94
2023-05-13T01:14:01.401Z,8.94
2023-05-13T01:15:03.299Z,8.94
2023-05-13T01:16:04.039Z,8.94
2023-05-13T01:17:01.624Z,8.94
2023-05-13T01:18:02.392Z,8.94
2023-05-13T01:19:02.026Z,8.94
2023-05-13T01:20:03.019Z,8.94
2023-05-13T01:21:03.817Z,8.94
2023-05-13T01:22:01.520Z,8.94
2023-05-13T01:23:02.070Z,8.94
2023-05-13T01:24:01.997Z,8.94
2023-05-13T01:25:02.437Z,8.94
2023-05-13T01:26:03.136Z,8.94
2023-05-13T01:27:04.337Z,8.93
2023-05-13T01:28:02.396Z,8.91
2023-05-13T01:29:02.520Z,8.9
2023-05-13T01:30:04.729Z,8.88
2023-05-13T01:31:02.621Z,8.87
2023-05-13T01:32:02.608Z,8.87
2023-05-13T01:33:02.654Z,8.86
2023-05-13T01:34:02.469Z,8.83
2023-05-13T01:35:03.998Z,8.82
2023-05-13T01:36:04.059Z,8.8
2023-05-13T01:37:01.777Z,8.78
2023-05-13T01:38:01.505Z,8.77
2023-05-13T01:39:02.050Z,8.76
2023-05-13T01:40:05.830Z,8.74
2023-05-13T01:41:01.880Z,8.72
2023-05-13T01:42:02.320Z,8.73
2023-05-13T01:43:03.549Z,8.72
2023-05-13T01:44:03.307Z,8.71
2023-05-13T01:45:02.707Z,8.7
2023-05-13T01:46:02.478Z,8.7
2023-05-13T01:47:02.540Z,8.67
2023-05-13T01:48:02.298Z,8.66
2023-05-13T01:49:03.622Z,8.63
2023-05-13T01:50:05.120Z,8.6
2023-05-13T01:51:03.611Z,8.6
2023-05-13T01:52:02.128Z,8.6
2023-05-13T01:53:01.961Z,8.59
2023-05-13T01:54:03.086Z,8.6
2023-05-13T01:55:04.500Z,8.57
2023-05-13T01:56:02.813Z,8.46
2023-05-13T01:57:01.385Z,8.45
2023-05-13T01:58:01.882Z,8.46
2023-05-13T01:59:01.361Z,8.47
2023-05-13T02:00:02.817Z,8.47
2023-05-13T02:01:01.742Z,8.45
2023-05-13T02:02:02.300Z,8.45
2023-05-13T02:03:02.037Z,8.45
2023-05-13T02:04:01.451Z,8.39
2023-05-13T02:05:02.939Z,8.32
2023-05-13T02:06:03.489Z,8.33
2023-05-13T02:07:01.473Z,8.3
2023-05-13T02:08:01.391Z,8.27
2023-05-13T02:09:01.514Z,8.26
2023-05-13T02:10:02.409Z,8.24
2023-05-13T02:11:02.643Z,8.26
2023-05-13T02:12:01.764Z,8.24
2023-05-13T02:13:04.013Z,8.21
2023-05-13T02:14:03.517Z,8.19
2023-05-13T02:15:02.415Z,8.17
2023-05-13T02:16:02.413Z,8.12
2023-05-13T02:17:01.668Z,8.06
2023-05-13T02:18:02.292Z,8.05
2023-05-13T02:19:01.958Z,8.07
2023-05-13T02:20:02.310Z,8.02
2023-05-13T02:21:02.573Z,7.99
2023-05-13T02:22:03.603Z,8
2023-05-13T02:23:01.444Z,8
2023-05-13T02:24:03.724Z,8
2023-05-13T02:25:02.656Z,7.98
2023-05-13T02:26:04.498Z,7.96
2023-05-13T02:27:02.712Z,7.96
2023-05-13T02:28:03.533Z,7.96
2023-05-13T02:29:01.464Z,7.94
2023-05-13T02:30:03.468Z,7.91
2023-05-13T02:31:02.247Z,7.91
2023-05-13T02:32:01.658Z,7.9
2023-05-13T02:34:01.937Z,7.85
2023-05-13T02:35:02.485Z,7.82
2023-05-13T02:36:02.467Z,7.78
2023-05-13T02:37:02.075Z,7.75
2023-05-13T02:38:03.134Z,7.73
2023-05-13T02:39:02.115Z,7.72
2023-05-13T02:40:02.433Z,7.71
2023-05-13T02:41:02.382Z,7.69
2023-05-13T02:42:03.849Z,7.68
2023-05-13T02:43:01.610Z,7.64
2023-05-13T02:44:02.256Z,7.64
2023-05-13T02:45:02.684Z,7.62
2023-05-13T02:46:01.707Z,7.61
2023-05-13T02:47:02.202Z,7.59
2023-05-13T02:48:01.653Z,7.53
2023-05-13T02:49:02.255Z,7.49
2023-05-13T02:50:03.096Z,7.53
2023-05-13T02:51:02.082Z,7.54
2023-05-13T02:52:01.477Z,7.5
2023-05-13T02:53:02.028Z,7.5
2023-05-13T02:54:01.598Z,7.48
2023-05-13T02:55:03.115Z,7.45
2023-05-13T02:56:02.764Z,7.44
2023-05-13T02:57:02.637Z,7.41
2023-05-13T02:58:02.502Z,7.39
2023-05-13T02:59:02.949Z,7.39
2023-05-13T03:00:02.818Z,7.35
2023-05-13T03:01:01.823Z,7.33
2023-05-13T03:02:02.740Z,7.31
2023-05-13T03:03:04.694Z,7.29
2023-05-13T03:04:03.905Z,7.28
2023-05-13T03:05:02.522Z,7.25
2023-05-13T03:06:01.804Z,7.24
2023-05-13T03:07:04.170Z,7.2
2023-05-13T03:08:01.716Z,7.2
2023-05-13T03:09:01.613Z,7.16
2023-05-13T03:10:02.962Z,7.16
2023-05-13T03:11:01.861Z,7.15
2023-05-13T03:12:03.919Z,7.14
2023-05-13T03:13:01.830Z,7.13
2023-05-13T03:14:01.351Z,7.13
2023-05-13T03:15:02.727Z,7.12
2023-05-13T03:16:03.835Z,7.09
2023-05-13T03:17:01.600Z,7.07
2023-05-13T03:18:02.176Z,7.07
2023-05-13T03:19:01.728Z,7.04
2023-05-13T03:20:02.436Z,7.03
2023-05-13T03:21:02.376Z,7.01
2023-05-13T03:22:03.120Z,6.99
2023-05-13T03:23:02.112Z,7
2023-05-13T03:24:01.464Z,6.99
2023-05-13T03:25:02.948Z,6.97
2023-05-13T03:26:03.725Z,6.93
2023-05-13T03:27:01.370Z,6.9
2023-05-13T03:28:01.944Z,6.9
2023-05-13T03:29:01.522Z,6.89
2023-05-13T03:30:02.849Z,6.86
2023-05-13T03:31:01.920Z,6.84
2023-05-13T03:32:02.350Z,6.83
2023-05-13T03:33:03.568Z,6.82
2023-05-13T03:34:01.436Z,6.82
2023-05-13T03:35:02.925Z,6.8
2023-05-13T03:36:02.881Z,6.75
2023-05-13T03:37:02.191Z,6.76
2023-05-13T03:38:01.381Z,6.76
2023-05-13T03:39:02.033Z,6.75
2023-05-13T03:40:02.678Z,6.74
2023-05-13T03:41:02.195Z,6.74
2023-05-13T03:42:02.247Z,6.73
2023-05-13T03:43:03.346Z,6.73
2023-05-13T03:44:02.268Z,6.72
2023-05-13T03:45:02.596Z,6.73
2023-05-13T03:46:01.513Z,6.73
2023-05-13T03:47:02.004Z,6.74
2023-05-13T03:48:03.167Z,6.73
2023-05-13T03:49:03.704Z,6.73
2023-05-13T03:50:04.376Z,6.72
2023-05-13T03:51:02.538Z,6.71
2023-05-13T03:52:01.924Z,6.71
2023-05-13T03:53:01.398Z,6.7
2023-05-13T03:54:02.005Z,6.69
2023-05-13T03:55:02.855Z,6.66
2023-05-13T03:56:01.799Z,6.6
2023-05-13T03:57:02.111Z,6.65
2023-05-13T03:58:01.687Z,6.68
2023-05-13T03:59:02.250Z,6.7
2023-05-13T04:00:02.873Z,6.7
2023-05-13T04:01:02.538Z,6.7
2023-05-13T04:02:01.537Z,6.69
2023-05-13T04:03:02.776Z,6.69
2023-05-13T04:04:01.786Z,6.69
2023-05-13T04:05:02.395Z,6.69
2023-05-13T04:06:03.005Z,6.69
2023-05-13T04:07:03.752Z,6.68
2023-05-13T04:08:01.615Z,6.69
2023-05-13T04:09:03.980Z,6.69
2023-05-13T04:10:02.817Z,6.7
2023-05-13T04:11:01.877Z,6.7
2023-05-13T04:12:01.491Z,6.7
2023-05-13T04:13:02.010Z,6.7
2023-05-13T04:14:01.628Z,6.68
2023-05-13T04:16:02.832Z,6.65
2023-05-13T04:17:02.137Z,6.66
2023-05-13T04:18:02.157Z,6.67
2023-05-13T04:19:01.595Z,6.66
2023-05-13T04:20:03.047Z,6.67
2023-05-13T04:21:01.861Z,6.69
2023-05-13T04:22:02.377Z,6.68
2023-05-13T04:23:02.036Z,6.69
2023-05-13T04:24:03.297Z,6.72
2023-05-13T04:25:02.737Z,6.73
2023-05-13T04:26:04.957Z,6.74
2023-05-13T04:27:02.266Z,6.75
2023-05-13T04:28:02.392Z,6.76
2023-05-13T04:29:02.642Z,6.79
2023-05-13T04:30:02.800Z,6.82
2023-05-13T04:31:03.358Z,6.85
2023-05-13T04:32:02.205Z,6.87
2023-05-13T04:33:01.980Z,6.88
2023-05-13T04:34:01.358Z,6.88
2023-05-13T04:36:02.772Z,6.9
2023-05-13T04:37:01.609Z,6.91
2023-05-13T04:38:02.267Z,6.94
2023-05-13T04:39:01.773Z,6.95
2023-05-13T04:40:03.954Z,6.97
2023-05-13T04:41:01.656Z,6.96
2023-05-13T04:42:04.517Z,6.97
2023-05-13T04:43:02.044Z,6.98
2023-05-13T04:44:01.561Z,6.98
2023-05-13T04:45:03.121Z,7
2023-05-13T04:46:02.297Z,7.01
2023-05-13T04:47:01.715Z,7.02
2023-05-13T04:48:02.253Z,7.04
2023-05-13T04:49:03.547Z,7.03
2023-05-13T04:50:03.972Z,7.04
2023-05-13T04:51:01.420Z,7.07
2023-05-13T04:52:01.997Z,7.1
2023-05-13T04:53:01.605Z,7.12
2023-05-13T04:54:01.691Z,7.13
2023-05-13T04:55:02.231Z,7.16
2023-05-13T04:56:02.955Z,7.14
2023-05-13T04:57:02.712Z,7.16
2023-05-13T04:58:01.926Z,7.19
2023-05-13T04:59:02.023Z,7.23
2023-05-13T05:00:02.961Z,7.23
2023-05-13T05:01:01.658Z,7.24
2023-05-13T05:28:06.092Z,9.4
2023-05-13T05:29:03.870Z,9.51
2023-05-13T05:30:02.645Z,9.6
2023-05-13T05:31:02.192Z,9.67
2023-05-13T05:32:02.163Z,9.76
2023-05-13T05:33:01.651Z,9.84
2023-05-13T05:34:02.320Z,9.93
2023-05-13T05:35:02.885Z,10.03
2023-05-13T05:36:02.108Z,10.12
2023-05-13T05:38:03.593Z,10.28
2023-05-13T05:39:01.605Z,10.37
2023-05-13T05:40:04.584Z,10.45
2023-05-13T05:41:02.874Z,10.53
2023-05-13T05:42:01.931Z,10.6
2023-05-13T05:43:01.455Z,10.69
2023-05-13T05:44:02.183Z,10.79
2023-05-13T05:45:02.677Z,10.88
2023-05-13T05:46:01.652Z,11
2023-05-13T05:47:02.265Z,11.1
2023-05-13T05:48:01.990Z,11.17
2023-05-13T05:49:03.770Z,11.23
2023-05-13T05:50:04.294Z,11.3
2023-05-13T05:51:04.369Z,11.41
2023-05-13T05:52:01.892Z,11.51
2023-05-13T05:53:02.742Z,11.58
2023-05-13T05:54:06.343Z,11.6
2023-05-13T05:55:02.161Z,11.67
2023-05-13T05:56:02.199Z,11.75
2023-05-13T05:57:01.448Z,11.89
2023-05-13T05:58:02.164Z,12.04
2023-05-13T05:59:01.786Z,12.17
2023-05-13T06:00:02.060Z,12.31
2023-05-13T06:01:02.259Z,12.44
2023-05-13T06:02:01.577Z,12.6
2023-05-13T06:03:02.393Z,12.73
2023-05-13T06:04:03.633Z,12.85
2023-05-13T06:05:02.220Z,12.94
2023-05-13T06:06:02.609Z,13.02
2023-05-13T06:07:03.353Z,13.12
2023-05-13T06:08:03.902Z,13.24
2023-05-13T06:09:01.757Z,13.33
2023-05-13T06:10:02.551Z,13.41
2023-05-13T06:11:02.272Z,13.5
2023-05-13T06:12:01.949Z,13.6
2023-05-13T06:13:01.798Z,13.69
2023-05-13T06:14:02.067Z,13.73
2023-05-13T06:15:02.708Z,13.78
2023-05-13T06:16:02.260Z,13.84
2023-05-13T06:17:02.152Z,13.92
2023-05-13T06:18:01.788Z,14.01
2023-05-13T06:19:02.371Z,14.11
2023-05-13T06:20:02.533Z,14.17
2023-05-13T06:21:03.362Z,14.22
2023-05-13T06:22:03.949Z,14.3
2023-05-13T06:23:01.453Z,14.39
2023-05-13T06:24:02.001Z,14.44
2023-05-13T06:25:02.646Z,14.54
2023-05-13T06:26:03.550Z,14.59
2023-05-13T06:27:01.917Z,14.67
2023-05-13T06:28:03.000Z,14.78
2023-05-13T06:29:03.695Z,14.89
2023-05-13T06:30:02.330Z,15
2023-05-13T06:31:02.297Z,15.1
2023-05-13T06:32:01.696Z,15.16
2023-05-13T06:33:04.061Z,15.18
2023-05-13T06:34:01.794Z,15.19
2023-05-13T06:35:02.321Z,15.22
2023-05-13T06:36:03.062Z,15.28
2023-05-13T06:37:01.870Z,15.33
2023-05-13T06:38:01.383Z,15.39
2023-05-13T06:39:03.599Z,15.53
2023-05-13T06:40:02.148Z,15.62
2023-05-13T06:41:03.774Z,15.62
2023-05-13T06:42:01.619Z,15.68
2023-05-13T06:43:02.147Z,15.76
2023-05-13T06:44:01.679Z,15.86
2023-05-13T06:45:02.332Z,15.98
2023-05-13T06:46:02.415Z,16.08
2023-05-13T06:47:02.273Z,16.19
2023-05-13T06:48:01.727Z,16.3
2023-05-13T06:49:02.174Z,16.34
2023-05-13T06:50:02.630Z,16.37
2023-05-13T06:51:01.602Z,16.44
2023-05-13T06:52:02.214Z,16.49
2023-05-13T06:53:03.296Z,16.47
2023-05-13T06:54:02.278Z,16.49
2023-05-13T06:55:02.582Z,16.6
2023-05-13T06:56:02.557Z,16.69
2023-05-13T06:57:02.696Z,16.79
2023-05-13T06:58:02.304Z,16.9
2023-05-13T07:00:04.687Z,16.98
2023-05-13T07:01:02.320Z,16.94
2023-05-13T07:02:02.518Z,16.91
2023-05-13T07:03:03.019Z,16.93
2023-05-13T07:04:02.519Z,16.98
2023-05-13T07:05:02.449Z,17.03
2023-05-13T07:06:03.107Z,17.05
2023-05-13T07:07:01.989Z,17.11
2023-05-13T07:08:02.718Z,17.16
2023-05-13T07:09:02.702Z,17.21
2023-05-13T07:10:02.294Z,17.28
2023-05-13T07:11:02.183Z,17.31
2023-05-13T07:12:03.932Z,17.37
2023-05-13T07:13:01.685Z,17.36
2023-05-13T07:14:01.480Z,17.35
2023-05-13T07:15:02.444Z,17.28
2023-05-13T07:16:02.021Z,17.18
2023-05-13T07:17:02.669Z,17.09
2023-05-13T07:18:01.805Z,16.98
2023-05-13T07:19:01.469Z,16.95
2023-05-13T07:20:02.885Z,16.9
2023-05-13T07:21:02.291Z,16.85
2023-05-13T07:22:04.036Z,16.78
2023-05-13T07:23:02.090Z,16.77
2023-05-13T07:24:02.439Z,16.8
2023-05-13T07:25:02.944Z,16.86
2023-05-13T07:26:03.630Z,16.92
2023-05-13T07:27:02.694Z,16.92
2023-05-13T07:28:03.643Z,16.93
2023-05-13T07:29:02.256Z,16.87
2023-05-13T07:30:03.005Z,16.78
2023-05-13T07:31:03.190Z,16.71
2023-05-13T07:32:04.406Z,16.71
2023-05-13T07:33:02.424Z,16.77
2023-05-13T07:34:01.638Z,16.74
2023-05-13T07:35:02.539Z,16.77
2023-05-13T07:36:02.920Z,16.81
2023-05-13T07:37:02.487Z,16.8
2023-05-13T07:38:03.597Z,16.79
2023-05-13T07:39:02.433Z,16.79
2023-05-13T07:40:03.198Z,16.85
2023-05-13T07:41:03.502Z,16.9
2023-05-13T07:42:02.452Z,16.98
2023-05-13T07:43:04.108Z,17.08
2023-05-13T07:45:24.335Z,17.17
2023-05-13T07:46:03.094Z,17.23
2023-05-13T07:47:02.527Z,17.26
2023-05-13T07:48:02.455Z,17.31
2023-05-13T07:49:03.103Z,17.38
2023-05-13T07:50:02.767Z,17.47
2023-05-13T07:51:04.074Z,17.51
2023-05-13T07:52:02.701Z,17.52
2023-05-13T07:53:01.736Z,17.58
2023-05-13T07:54:03.865Z,17.66
2023-05-13T07:55:02.729Z,17.68
2023-05-13T07:56:02.501Z,17.6
2023-05-13T07:57:02.268Z,17.58
2023-05-13T07:58:01.973Z,17.61
2023-05-13T07:59:01.616Z,17.61
2023-05-13T08:01:02.873Z,17.66
2023-05-13T08:02:01.944Z,17.65
2023-05-13T08:03:02.242Z,17.66
2023-05-13T08:04:02.261Z,17.74
2023-05-13T08:05:02.735Z,17.8
2023-05-13T08:06:02.409Z,17.83
2023-05-13T08:07:02.379Z,17.91
2023-05-13T08:08:01.790Z,17.92
2023-05-13T08:09:03.146Z,17.95
2023-05-13T08:10:03.421Z,18.02
2023-05-13T08:11:02.270Z,18.05
2023-05-13T08:12:01.727Z,18.04
2023-05-13T08:13:02.362Z,18.05
2023-05-13T08:14:02.346Z,18.1
2023-05-13T08:15:02.660Z,18.17
2023-05-13T08:16:02.816Z,18.25
2023-05-13T08:17:02.598Z,18.28
2023-05-13T08:18:02.618Z,18.35
2023-05-13T08:19:03.053Z,18.42
2023-05-13T08:20:03.719Z,18.5
2023-05-13T08:21:02.840Z,18.61
2023-05-13T08:22:07.127Z,18.65
2023-05-13T08:23:05.315Z,18.72
2023-05-13T08:24:02.079Z,18.76
2023-05-13T08:25:02.479Z,18.77
2023-05-13T08:26:02.380Z,18.79
2023-05-13T08:27:02.287Z,18.84
2023-05-13T08:28:04.466Z,18.89
2023-05-13T08:29:04.240Z,18.88
2023-05-13T08:30:03.272Z,18.91
2023-05-13T08:31:02.953Z,18.93
2023-05-13T08:32:02.995Z,18.98
2023-05-13T08:33:04.266Z,19.07
2023-05-13T08:34:01.995Z,19.14
2023-05-13T08:35:02.730Z,19.22
2023-05-13T08:36:02.284Z,19.27
2023-05-13T08:37:02.371Z,19.31
2023-05-13T08:39:03.105Z,19.44
2023-05-13T08:40:03.231Z,19.56
2023-05-13T08:41:02.664Z,19.58
2023-05-13T08:42:01.560Z,19.52
2023-05-13T08:43:02.205Z,19.38
2023-05-13T08:44:03.590Z,19.42
2023-05-13T08:45:02.590Z,19.41
2023-05-13T08:46:02.047Z,19.36
2023-05-13T08:47:02.859Z,19.39
2023-05-13T08:48:02.051Z,19.43
2023-05-13T08:49:01.551Z,19.51
2023-05-13T08:50:03.218Z,19.46
2023-05-13T08:51:03.362Z,19.47
2023-05-13T08:52:04.085Z,19.54
2023-05-13T08:53:01.498Z,19.54
2023-05-13T08:54:02.001Z,19.6
2023-05-13T08:55:03.057Z,19.68
2023-05-13T08:56:01.772Z,19.77
2023-05-13T08:57:02.254Z,19.83
2023-05-13T08:58:01.769Z,19.9
2023-05-13T08:59:02.324Z,19.91
2023-05-13T09:00:03.096Z,19.82
2023-05-13T09:01:02.669Z,19.77
2023-05-13T09:02:02.496Z,19.81
2023-05-13T09:03:02.454Z,19.68
2023-05-13T09:04:03.026Z,19.55
2023-05-13T09:05:02.427Z,19.37
2023-05-13T09:06:02.209Z,19.23
2023-05-13T09:07:03.292Z,19.11
2023-05-13T09:08:03.918Z,19
2023-05-13T09:09:01.774Z,18.89
2023-05-13T09:10:02.442Z,18.79
2023-05-13T09:11:03.327Z,18.76
2023-05-13T09:12:02.407Z,18.79
2023-05-13T09:13:01.843Z,18.71
2023-05-13T09:14:02.265Z,18.72
2023-05-13T09:15:02.871Z,18.84
2023-05-13T09:16:03.131Z,18.99
2023-05-13T09:17:02.696Z,18.95
2023-05-13T09:18:02.365Z,18.93
2023-05-13T09:19:01.744Z,18.87
2023-05-13T09:20:02.749Z,18.78
2023-05-13T09:21:02.351Z,18.72
2023-05-13T09:22:04.197Z,18.82
2023-05-13T09:23:02.029Z,18.93
2023-05-13T09:24:01.705Z,19.02
2023-05-13T09:25:02.314Z,19.09
2023-05-13T09:26:03.193Z,19.16
2023-05-13T09:27:02.451Z,19.24
2023-05-13T09:28:01.632Z,19.33
2023-05-13T09:29:01.379Z,19.32
2023-05-13T09:30:02.629Z,19.32
2023-05-13T09:32:02.903Z,19.43
2023-05-13T09:33:03.371Z,19.52
2023-05-13T09:34:01.473Z,19.57
2023-05-13T09:35:02.692Z,19.66
2023-05-13T09:36:02.645Z,19.68
2023-05-13T09:37:02.610Z,19.65
2023-05-13T09:38:02.453Z,19.59
2023-05-13T09:39:02.558Z,19.57
2023-05-13T09:40:02.452Z,19.57
2023-05-13T09:41:03.006Z,19.62
2023-05-13T09:42:04.300Z,19.71
2023-05-13T09:43:01.758Z,19.76
2023-05-13T09:44:01.526Z,19.91
2023-05-13T09:45:03.930Z,20.07
2023-05-13T09:46:01.761Z,20.21
2023-05-13T09:47:02.452Z,20.28
2023-05-13T09:48:01.889Z,20.26
2023-05-13T09:49:01.442Z,20.22
2023-05-13T09:50:03.018Z,20.17
2023-05-13T09:51:02.904Z,20.1
2023-05-13T09:52:04.034Z,19.96
2023-05-13T09:53:02.303Z,19.92
2023-05-13T09:54:02.401Z,19.71
2023-05-13T09:55:02.937Z,19.6
2023-05-13T09:56:01.948Z,19.62
2023-05-13T09:57:03.619Z,19.7
2023-05-13T09:58:01.684Z,19.73
2023-05-13T09:59:02.186Z,19.87
2023-05-13T10:00:02.895Z,19.92
2023-05-13T10:01:02.490Z,20.02
2023-05-13T10:02:04.525Z,20.06
2023-05-13T10:03:04.082Z,20.14
2023-05-13T10:04:01.939Z,20.17
2023-05-13T10:05:02.197Z,20.15
2023-05-13T10:06:03.365Z,20.11
2023-05-13T10:07:02.277Z,20.1
2023-05-13T10:08:01.466Z,20.13
2023-05-13T10:09:03.723Z,20.14
2023-05-13T10:10:02.612Z,20.22
2023-05-13T10:12:03.045Z,20.39
2023-05-13T10:13:01.782Z,20.39
2023-05-13T10:14:01.518Z,20.39
2023-05-13T10:15:03.354Z,20.46
2023-05-13T10:16:04.563Z,20.43
2023-05-13T10:17:03.095Z,20.43
2023-05-13T10:18:02.150Z,20.45
2023-05-13T10:19:01.783Z,20.47
2023-05-13T10:20:02.435Z,20.43
2023-05-13T10:21:03.435Z,20.29
2023-05-13T10:22:02.505Z,20.15
2023-05-13T10:23:01.843Z,20.13
2023-05-13T10:24:01.543Z,20.14
2023-05-13T10:25:02.818Z,20.2
2023-05-13T10:26:02.457Z,20.27
2023-05-13T10:27:02.304Z,20.4
2023-05-13T10:28:01.763Z,20.47
2023-05-13T10:29:01.377Z,20.49
2023-05-13T10:30:03.917Z,20.54
2023-05-13T10:31:03.329Z,20.56
2023-05-13T10:32:03.919Z,20.62
2023-05-13T10:33:01.840Z,20.6
2023-05-13T10:34:01.369Z,20.44
2023-05-13T10:36:02.696Z,20.57
2023-05-13T10:37:01.604Z,20.65
2023-05-13T10:38:02.350Z,20.63
2023-05-13T10:39:01.914Z,20.65
2023-05-13T10:40:02.992Z,20.69
2023-05-13T10:41:01.695Z,20.73
2023-05-13T10:42:01.377Z,20.79
2023-05-13T10:43:03.667Z,20.83
2023-05-13T10:44:01.669Z,20.88
2023-05-13T10:45:02.631Z,20.95
2023-05-13T10:46:03.640Z,20.94
2023-05-13T10:47:02.989Z,20.98
2023-05-13T10:48:05.135Z,20.94
2023-05-13T10:49:01.606Z,20.92
2023-05-13T10:50:03.216Z,20.88
2023-05-13T10:51:02.256Z,20.83
2023-05-13T10:52:02.017Z,20.8
2023-05-13T10:53:01.516Z,20.59
2023-05-13T10:54:02.339Z,20.51
2023-05-13T10:55:02.799Z,20.47
2023-05-13T10:56:02.620Z,20.47
2023-05-13T10:57:02.148Z,20.43
2023-05-13T10:58:01.870Z,20.26
2023-05-13T10:59:01.472Z,20.16
2023-05-13T11:00:03.190Z,20.13
2023-05-13T11:01:01.941Z,20.11
2023-05-13T14:50:04.326Z,20.54
2023-05-13T14:51:01.853Z,20.42
2023-05-13T14:52:03.969Z,20.41
2023-05-13T14:53:01.615Z,20.35
2023-05-13T14:54:03.611Z,20.41
2023-05-13T14:55:02.320Z,20.46
2023-05-13T14:56:04.030Z,20.47
2023-05-13T14:57:01.733Z,20.58
2023-05-13T14:58:02.095Z,20.63
2023-05-13T14:59:01.613Z,20.76
2023-05-13T15:00:02.090Z,20.92
2023-05-13T15:01:03.394Z,21.07
2023-05-13T15:02:02.153Z,21.2
2023-05-13T15:03:01.681Z,21.36
2023-05-13T15:04:02.211Z,21.2
2023-05-13T15:05:01.554Z,21.03
2023-05-13T15:06:03.707Z,20.84
2023-05-13T15:07:01.549Z,20.75
2023-05-13T15:08:02.002Z,20.65
2023-05-13T15:09:01.452Z,20.54
2023-05-13T15:10:03.807Z,20.44
2023-05-13T15:11:03.142Z,20.35
2023-05-13T15:12:03.057Z,20.2
2023-05-13T15:13:01.390Z,20.14
2023-05-13T15:14:01.955Z,20.09
2023-05-13T15:15:01.380Z,19.91
2023-05-13T15:16:01.931Z,19.87
2023-05-13T15:17:01.466Z,19.84
2023-05-13T15:18:03.665Z,19.91
2023-05-13T15:19:01.377Z,19.91
2023-05-13T15:20:01.861Z,19.98
2023-05-13T15:21:01.363Z,19.97
2023-05-13T15:22:01.851Z,19.99
2023-05-13T15:23:03.999Z,20.07
2023-05-13T15:24:01.720Z,20.14
2023-05-13T15:25:02.253Z,20.21
2023-05-13T15:26:01.783Z,20.21
2023-05-13T15:27:02.084Z,20.02
2023-05-13T15:28:02.262Z,19.92
2023-05-13T15:29:01.801Z,19.92
2023-05-13T15:30:01.489Z,20.01
2023-05-13T15:31:03.599Z,20.11
2023-05-13T15:32:01.474Z,20.2
2023-05-13T15:33:02.129Z,20.26
2023-05-13T15:34:01.607Z,20.41
2023-05-13T15:35:02.332Z,20.37
2023-05-13T15:36:03.542Z,20.51
2023-05-13T15:37:01.701Z,20.61
2023-05-13T15:38:02.286Z,20.69
2023-05-13T15:39:02.772Z,20.74
2023-05-13T15:40:02.274Z,20.7
2023-05-13T15:41:04.114Z,20.64
2023-05-13T15:42:03.931Z,20.61
2023-05-13T15:43:01.794Z,20.61
2023-05-13T15:44:02.361Z,20.57
2023-05-13T15:45:01.784Z,20.49
2023-05-13T15:46:02.461Z,20.49
2023-05-13T15:47:01.984Z,20.46
2023-05-13T15:48:01.437Z,20.39
2023-05-13T15:49:01.969Z,20.47
2023-05-13T15:50:01.534Z,20.66
2023-05-13T15:51:03.688Z,20.77
2023-05-13T15:52:04.372Z,20.79
2023-05-13T15:53:03.738Z,20.74
2023-05-13T15:54:01.535Z,20.72
2023-05-13T15:55:02.021Z,20.69
2023-05-13T15:56:01.605Z,20.72
2023-05-13T15:57:03.789Z,20.71
2023-05-13T15:58:01.604Z,20.6
2023-05-13T15:59:02.182Z,20.57
2023-05-13T16:00:03.370Z,20.4
2023-05-13T16:01:02.324Z,20.43
2023-05-13T16:02:01.878Z,20.44
2023-05-13T16:03:04.008Z,20.54
2023-05-13T16:04:01.958Z,20.58
2023-05-13T16:05:01.377Z,20.59
2023-05-13T16:06:03.562Z,20.5
2023-05-13T16:07:01.369Z,20.57
2023-05-13T16:08:01.947Z,20.7
2023-05-13T16:09:01.466Z,20.77
2023-05-13T16:10:01.988Z,20.73
2023-05-13T16:11:01.443Z,20.66
2023-05-13T16:12:02.029Z,20.63
2023-05-13T16:13:01.526Z,20.61
2023-05-13T16:14:02.023Z,20.58
2023-05-13T16:15:01.579Z,20.5
2023-05-13T16:16:03.884Z,20.43
2023-05-13T16:17:03.422Z,20.33
2023-05-13T16:18:02.327Z,20.24
2023-05-13T16:19:03.674Z,20.14
2023-05-13T16:20:02.259Z,20.06
2023-05-13T16:21:01.761Z,20.03
2023-05-13T16:22:01.380Z,20.02
2023-05-13T16:23:01.881Z,20
2023-05-13T16:24:03.078Z,19.92
2023-05-13T16:25:01.963Z,19.87
2023-05-13T16:26:01.436Z,19.77
2023-05-13T16:27:03.626Z,19.72
2023-05-13T16:28:01.557Z,19.69
2023-05-13T16:29:02.011Z,19.68
2023-05-13T16:30:03.227Z,19.68
2023-05-13T16:31:03.825Z,19.66
2023-05-13T16:32:01.841Z,19.57
2023-05-13T16:33:03.909Z,19.55
2023-05-13T16:34:01.607Z,19.55
2023-05-13T16:36:02.207Z,19.41
2023-05-13T16:37:02.807Z,19.28
2023-05-13T16:38:02.167Z,19.2
2023-05-13T16:39:03.373Z,19.11
2023-05-13T16:40:03.849Z,19.02
2023-05-13T16:41:01.721Z,18.94
2023-05-13T16:42:02.301Z,18.87
2023-05-13T16:43:03.595Z,18.79
2023-05-13T16:44:02.259Z,18.74
2023-05-13T16:45:01.790Z,18.66
2023-05-13T16:46:02.650Z,18.53
2023-05-13T16:47:01.768Z,18.49
2023-05-13T16:48:02.400Z,18.38
2023-05-13T16:49:01.877Z,18.34
2023-05-13T16:50:02.357Z,18.27
2023-05-13T16:51:01.873Z,18.22
2023-05-13T16:52:01.415Z,18.22
2023-05-13T16:53:01.873Z,18.19
2023-05-13T16:54:01.379Z,18.09
2023-05-13T16:55:01.964Z,18.05
2023-05-13T16:56:01.372Z,18.05
2023-05-13T16:57:01.875Z,18.02
2023-05-13T16:58:01.408Z,17.95
2023-05-13T16:59:01.875Z,17.93
2023-05-13T17:00:01.408Z,17.81
2023-05-13T17:01:01.909Z,17.73
2023-05-13T17:02:01.427Z,17.67
2023-05-13T17:03:01.937Z,17.66
2023-05-13T17:04:03.068Z,17.6
2023-05-13T17:05:03.633Z,17.5
2023-05-13T17:06:01.354Z,17.41
2023-05-13T17:07:03.637Z,17.34
2023-05-13T17:08:01.458Z,17.28
2023-05-13T17:09:03.607Z,17.18
2023-05-13T17:10:01.485Z,17.17
2023-05-13T17:11:01.939Z,17.17
2023-05-13T17:12:01.455Z,17.15
2023-05-13T17:13:02.037Z,17.14
2023-05-13T17:14:01.458Z,17.11
2023-05-13T17:15:01.970Z,17.07
2023-05-13T17:16:01.452Z,17.04
2023-05-13T17:17:02.092Z,17.02
2023-05-13T17:18:01.503Z,16.98
2023-05-13T17:19:02.037Z,16.92
2023-05-13T17:20:01.563Z,16.88
2023-05-13T17:21:03.723Z,16.88
2023-05-13T17:22:01.554Z,16.86
2023-05-13T17:23:03.708Z,16.8
2023-05-13T17:24:01.556Z,16.79
2023-05-13T17:25:02.024Z,16.78
2023-05-13T17:26:03.254Z,16.75
2023-05-13T17:27:02.015Z,16.75
2023-05-13T17:28:01.568Z,16.76
2023-05-13T17:29:02.055Z,16.77
2023-05-13T17:30:01.575Z,16.74
2023-05-13T17:31:02.058Z,16.71
2023-05-13T17:32:01.504Z,16.69
2023-05-13T17:34:01.604Z,16.64
2023-05-13T17:35:02.126Z,16.64